sensor_id;sensor_type;location;lat;lon;timestamp;P1;durP1;ratioP1;P2;durP2;ratioP2
11139;SDS011;5624;49.388;11.350;2022-12-29T00:01:35;3.30;;;2.13;;
11139;SDS011;5624;49.388;11.350;2022-12-29T00:04:01;3.03;;;2.10;;
11139;SDS011;5624;49.388;11.350;2022-12-29T00:06:27;2.43;;;2.17;;
11139;SDS011;5624;49.388;11.350;2022-12-29T00:08:53;2.50;;;2.30;;
11139;SDS011;5624;49.388;11.350;2022-12-29T00:11:22;3.97;;;2.17;;
11139;SDS011;5624;49.388;11.350;2022-12-29T00:13:49;4.07;;;2.07;;
11139;SDS011;5624;49.388;11.350;2022-12-29T00:16:34;5.97;;;2.33;;
11139;SDS011;5624;49.388;11.350;2022-12-29T00:19:00;3.07;;;2.07;;
11139;SDS011;5624;49.388;11.350;2022-12-29T00:21:26;3.20;;;1.97;;
11139;SDS011;5624;49.388;11.350;2022-12-29T00:24:15;3.57;;;2.03;;
11139;SDS011;5624;49.388;11.350;2022-12-29T00:26:58;2.40;;;2.00;;
11139;SDS011;5624;49.388;11.350;2022-12-29T00:29:48;3.40;;;2.03;;
11139;SDS011;5624;49.388;11.350;2022-12-29T00:32:32;2.63;;;2.07;;
11139;SDS011;5624;49.388;11.350;2022-12-29T00:35:51;3.77;;;1.87;;
11139;SDS011;5624;49.388;11.350;2022-12-29T00:38:10;2.53;;;1.90;;
11139;SDS011;5624;49.388;11.350;2022-12-29T00:40:56;3.30;;;2.10;;
11139;SDS011;5624;49.388;11.350;2022-12-29T00:43:40;2.10;;;1.67;;
11139;SDS011;5624;49.388;11.350;2022-12-29T00:46:24;3.00;;;2.10;;
11139;SDS011;5624;49.388;11.350;2022-12-29T00:48:50;3.30;;;1.93;;
11139;SDS011;5624;49.388;11.350;2022-12-29T00:51:34;2.73;;;2.00;;
11139;SDS011;5624;49.388;11.350;2022-12-29T00:54:00;3.83;;;2.20;;
11139;SDS011;5624;49.388;11.350;2022-12-29T00:56:25;3.03;;;2.10;;
11139;SDS011;5624;49.388;11.350;2022-12-29T00:58:51;2.63;;;1.77;;
11139;SDS011;5624;49.388;11.350;2022-12-29T01:01:17;1.70;;;1.50;;
11139;SDS011;5624;49.388;11.350;2022-12-29T01:03:42;3.03;;;1.97;;
11139;SDS011;5624;49.388;11.350;2022-12-29T01:06:09;2.10;;;1.60;;
11139;SDS011;5624;49.388;11.350;2022-12-29T01:08:35;2.10;;;1.70;;
11139;SDS011;5624;49.388;11.350;2022-12-29T01:11:11;2.00;;;1.77;;
11139;SDS011;5624;49.388;11.350;2022-12-29T01:13:37;2.40;;;1.70;;
11139;SDS011;5624;49.388;11.350;2022-12-29T01:16:05;3.23;;;1.80;;
11139;SDS011;5624;49.388;11.350;2022-12-29T01:18:31;2.20;;;1.63;;
11139;SDS011;5624;49.388;11.350;2022-12-29T01:21:01;2.30;;;1.90;;
11139;SDS011;5624;49.388;11.350;2022-12-29T01:23:30;2.70;;;1.67;;
11139;SDS011;5624;49.388;11.350;2022-12-29T01:25:57;3.27;;;1.93;;
11139;SDS011;5624;49.388;11.350;2022-12-29T01:28:32;2.70;;;1.80;;
11139;SDS011;5624;49.388;11.350;2022-12-29T01:30:59;2.63;;;2.00;;
11139;SDS011;5624;49.388;11.350;2022-12-29T01:33:25;2.63;;;1.80;;
11139;SDS011;5624;49.388;11.350;2022-12-29T01:35:51;2.13;;;1.73;;
11139;SDS011;5624;49.388;11.350;2022-12-29T01:38:16;2.23;;;1.80;;
11139;SDS011;5624;49.388;11.350;2022-12-29T01:40:43;4.20;;;2.20;;
11139;SDS011;5624;49.388;11.350;2022-12-29T01:43:10;2.57;;;2.00;;
11139;SDS011;5624;49.388;11.350;2022-12-29T01:45:39;3.37;;;1.70;;
11139;SDS011;5624;49.388;11.350;2022-12-29T01:48:10;2.17;;;1.63;;
11139;SDS011;5624;49.388;11.350;2022-12-29T01:50:38;2.40;;;1.70;;
11139;SDS011;5624;49.388;11.350;2022-12-29T01:53:09;2.27;;;1.70;;
11139;SDS011;5624;49.388;11.350;2022-12-29T01:55:43;4.30;;;2.07;;
11139;SDS011;5624;49.388;11.350;2022-12-29T01:58:31;2.27;;;1.70;;
11139;SDS011;5624;49.388;11.350;2022-12-29T02:01:00;2.73;;;1.70;;
11139;SDS011;5624;49.388;11.350;2022-12-29T02:03:26;3.90;;;2.00;;
11139;SDS011;5624;49.388;11.350;2022-12-29T02:06:17;2.07;;;1.60;;
11139;SDS011;5624;49.388;11.350;2022-12-29T02:08:47;2.93;;;2.03;;
11139;SDS011;5624;49.388;11.350;2022-12-29T02:11:16;3.47;;;1.63;;
11139;SDS011;5624;49.388;11.350;2022-12-29T02:13:42;1.87;;;1.60;;
11139;SDS011;5624;49.388;11.350;2022-12-29T02:22:06;3.50;;;1.97;;
11139;SDS011;5624;49.388;11.350;2022-12-29T02:32:57;2.83;;;1.90;;
11139;SDS011;5624;49.388;11.350;2022-12-29T02:40:43;1.73;;;1.63;;
11139;SDS011;5624;49.388;11.350;2022-12-29T02:43:17;6.03;;;2.10;;
11139;SDS011;5624;49.388;11.350;2022-12-29T02:45:54;1.83;;;1.60;;
11139;SDS011;5624;49.388;11.350;2022-12-29T02:48:32;2.87;;;1.80;;
11139;SDS011;5624;49.388;11.350;2022-12-29T02:51:29;2.40;;;1.80;;
11139;SDS011;5624;49.388;11.350;2022-12-29T02:54:20;3.30;;;1.67;;
11139;SDS011;5624;49.388;11.350;2022-12-29T02:59:48;1.90;;;1.50;;
11139;SDS011;5624;49.388;11.350;2022-12-29T03:13:43;3.33;;;1.87;;
11139;SDS011;5624;49.388;11.350;2022-12-29T03:19:23;3.47;;;1.80;;
11139;SDS011;5624;49.388;11.350;2022-12-29T03:22:04;5.37;;;1.90;;
11139;SDS011;5624;49.388;11.350;2022-12-29T03:24:52;1.80;;;1.60;;
11139;SDS011;5624;49.388;11.350;2022-12-29T03:27:22;2.50;;;1.70;;
11139;SDS011;5624;49.388;11.350;2022-12-29T03:30:00;3.47;;;1.90;;
11139;SDS011;5624;49.388;11.350;2022-12-29T03:32:31;2.37;;;1.53;;
11139;SDS011;5624;49.388;11.350;2022-12-29T03:35:03;4.90;;;1.90;;
11139;SDS011;5624;49.388;11.350;2022-12-29T03:37:31;3.57;;;1.80;;
11139;SDS011;5624;49.388;11.350;2022-12-29T03:40:02;2.77;;;1.90;;
11139;SDS011;5624;49.388;11.350;2022-12-29T03:42:29;1.93;;;1.70;;
11139;SDS011;5624;49.388;11.350;2022-12-29T03:44:57;2.47;;;1.60;;
11139;SDS011;5624;49.388;11.350;2022-12-29T03:47:23;1.80;;;1.40;;
11139;SDS011;5624;49.388;11.350;2022-12-29T03:49:49;2.40;;;1.33;;
11139;SDS011;5624;49.388;11.350;2022-12-29T03:52:15;1.67;;;1.40;;
11139;SDS011;5624;49.388;11.350;2022-12-29T03:54:41;2.43;;;1.60;;
11139;SDS011;5624;49.388;11.350;2022-12-29T03:57:07;2.37;;;1.73;;
11139;SDS011;5624;49.388;11.350;2022-12-29T03:59:33;2.10;;;1.60;;
11139;SDS011;5624;49.388;11.350;2022-12-29T04:01:59;2.17;;;1.70;;
11139;SDS011;5624;49.388;11.350;2022-12-29T04:04:24;2.40;;;1.40;;
11139;SDS011;5624;49.388;11.350;2022-12-29T04:06:50;3.33;;;1.53;;
11139;SDS011;5624;49.388;11.350;2022-12-29T04:09:15;3.23;;;1.93;;
11139;SDS011;5624;49.388;11.350;2022-12-29T04:11:41;2.90;;;1.90;;
11139;SDS011;5624;49.388;11.350;2022-12-29T04:14:07;2.00;;;1.80;;
11139;SDS011;5624;49.388;11.350;2022-12-29T04:16:32;1.67;;;1.57;;
11139;SDS011;5624;49.388;11.350;2022-12-29T04:19:00;1.63;;;1.50;;
11139;SDS011;5624;49.388;11.350;2022-12-29T04:21:26;2.13;;;1.57;;
11139;SDS011;5624;49.388;11.350;2022-12-29T04:23:52;2.77;;;1.67;;
11139;SDS011;5624;49.388;11.350;2022-12-29T04:26:17;3.47;;;1.87;;
11139;SDS011;5624;49.388;11.350;2022-12-29T04:28:43;2.40;;;1.50;;
11139;SDS011;5624;49.388;11.350;2022-12-29T04:31:08;2.07;;;1.77;;
11139;SDS011;5624;49.388;11.350;2022-12-29T04:33:34;2.17;;;1.50;;
11139;SDS011;5624;49.388;11.350;2022-12-29T04:36:00;3.37;;;1.73;;
11139;SDS011;5624;49.388;11.350;2022-12-29T04:38:25;2.13;;;1.50;;
11139;SDS011;5624;49.388;11.350;2022-12-29T04:40:51;2.77;;;1.77;;
11139;SDS011;5624;49.388;11.350;2022-12-29T04:43:17;2.73;;;1.70;;
11139;SDS011;5624;49.388;11.350;2022-12-29T04:45:44;1.90;;;1.50;;
11139;SDS011;5624;49.388;11.350;2022-12-29T04:48:11;2.17;;;1.60;;
11139;SDS011;5624;49.388;11.350;2022-12-29T04:50:37;2.30;;;1.67;;
11139;SDS011;5624;49.388;11.350;2022-12-29T04:53:03;2.63;;;1.80;;
11139;SDS011;5624;49.388;11.350;2022-12-29T04:55:28;3.87;;;1.73;;
11139;SDS011;5624;49.388;11.350;2022-12-29T04:57:54;3.13;;;1.60;;
11139;SDS011;5624;49.388;11.350;2022-12-29T05:00:20;3.20;;;1.50;;
11139;SDS011;5624;49.388;11.350;2022-12-29T05:02:46;2.50;;;1.70;;
11139;SDS011;5624;49.388;11.350;2022-12-29T05:05:11;3.60;;;1.80;;
11139;SDS011;5624;49.388;11.350;2022-12-29T05:07:37;1.40;;;1.30;;
11139;SDS011;5624;49.388;11.350;2022-12-29T05:10:03;2.63;;;1.60;;
11139;SDS011;5624;49.388;11.350;2022-12-29T05:12:33;3.03;;;1.80;;
11139;SDS011;5624;49.388;11.350;2022-12-29T05:15:00;3.40;;;1.80;;
11139;SDS011;5624;49.388;11.350;2022-12-29T05:17:27;2.37;;;1.67;;
11139;SDS011;5624;49.388;11.350;2022-12-29T05:19:53;1.70;;;1.40;;
11139;SDS011;5624;49.388;11.350;2022-12-29T05:22:19;2.07;;;1.70;;
11139;SDS011;5624;49.388;11.350;2022-12-29T05:24:44;2.63;;;1.50;;
11139;SDS011;5624;49.388;11.350;2022-12-29T05:27:10;2.83;;;1.60;;
11139;SDS011;5624;49.388;11.350;2022-12-29T05:29:36;2.90;;;1.60;;
11139;SDS011;5624;49.388;11.350;2022-12-29T05:32:01;1.70;;;1.60;;
11139;SDS011;5624;49.388;11.350;2022-12-29T05:34:27;3.23;;;1.90;;
11139;SDS011;5624;49.388;11.350;2022-12-29T05:36:52;1.37;;;1.27;;
11139;SDS011;5624;49.388;11.350;2022-12-29T05:39:18;3.30;;;1.97;;
11139;SDS011;5624;49.388;11.350;2022-12-29T05:41:44;2.20;;;1.43;;
11139;SDS011;5624;49.388;11.350;2022-12-29T05:44:10;1.93;;;1.67;;
11139;SDS011;5624;49.388;11.350;2022-12-29T05:46:36;2.73;;;1.80;;
11139;SDS011;5624;49.388;11.350;2022-12-29T05:49:01;1.50;;;1.40;;
11139;SDS011;5624;49.388;11.350;2022-12-29T05:51:27;2.33;;;1.80;;
11139;SDS011;5624;49.388;11.350;2022-12-29T05:53:52;2.63;;;1.70;;
11139;SDS011;5624;49.388;11.350;2022-12-29T05:56:18;2.20;;;1.40;;
11139;SDS011;5624;49.388;11.350;2022-12-29T05:58:44;2.50;;;1.70;;
11139;SDS011;5624;49.388;11.350;2022-12-29T06:01:09;2.90;;;1.67;;
11139;SDS011;5624;49.388;11.350;2022-12-29T06:03:35;2.83;;;1.70;;
11139;SDS011;5624;49.388;11.350;2022-12-29T06:06:00;1.73;;;1.60;;
11139;SDS011;5624;49.388;11.350;2022-12-29T06:08:26;2.37;;;1.40;;
11139;SDS011;5624;49.388;11.350;2022-12-29T06:10:51;2.93;;;1.93;;
11139;SDS011;5624;49.388;11.350;2022-12-29T06:13:17;2.67;;;1.67;;
11139;SDS011;5624;49.388;11.350;2022-12-29T06:15:42;2.93;;;1.40;;
11139;SDS011;5624;49.388;11.350;2022-12-29T06:18:08;2.30;;;1.90;;
11139;SDS011;5624;49.388;11.350;2022-12-29T06:20:34;4.27;;;1.60;;
11139;SDS011;5624;49.388;11.350;2022-12-29T06:23:00;2.20;;;1.60;;
11139;SDS011;5624;49.388;11.350;2022-12-29T06:25:25;3.90;;;2.10;;
11139;SDS011;5624;49.388;11.350;2022-12-29T06:27:51;1.70;;;1.50;;
11139;SDS011;5624;49.388;11.350;2022-12-29T06:30:17;2.60;;;1.80;;
11139;SDS011;5624;49.388;11.350;2022-12-29T06:32:42;1.90;;;1.70;;
11139;SDS011;5624;49.388;11.350;2022-12-29T06:35:09;2.43;;;1.70;;
11139;SDS011;5624;49.388;11.350;2022-12-29T06:37:35;3.13;;;1.83;;
11139;SDS011;5624;49.388;11.350;2022-12-29T06:40:00;3.67;;;2.13;;
11139;SDS011;5624;49.388;11.350;2022-12-29T06:42:27;2.37;;;1.70;;
11139;SDS011;5624;49.388;11.350;2022-12-29T06:44:52;3.17;;;1.90;;
11139;SDS011;5624;49.388;11.350;2022-12-29T06:47:18;2.53;;;1.93;;
11139;SDS011;5624;49.388;11.350;2022-12-29T06:49:44;3.73;;;2.13;;
11139;SDS011;5624;49.388;11.350;2022-12-29T06:52:10;4.07;;;2.60;;
11139;SDS011;5624;49.388;11.350;2022-12-29T06:54:35;4.70;;;2.57;;
11139;SDS011;5624;49.388;11.350;2022-12-29T06:57:01;3.60;;;2.53;;
11139;SDS011;5624;49.388;11.350;2022-12-29T06:59:27;4.17;;;2.10;;
11139;SDS011;5624;49.388;11.350;2022-12-29T07:01:52;3.93;;;2.17;;
11139;SDS011;5624;49.388;11.350;2022-12-29T07:04:19;3.70;;;2.27;;
11139;SDS011;5624;49.388;11.350;2022-12-29T07:06:45;2.37;;;2.17;;
11139;SDS011;5624;49.388;11.350;2022-12-29T07:09:10;3.43;;;2.17;;
11139;SDS011;5624;49.388;11.350;2022-12-29T07:11:36;2.03;;;1.70;;
11139;SDS011;5624;49.388;11.350;2022-12-29T07:14:02;2.50;;;1.83;;
11139;SDS011;5624;49.388;11.350;2022-12-29T07:16:28;2.77;;;1.93;;
11139;SDS011;5624;49.388;11.350;2022-12-29T07:18:55;2.50;;;1.93;;
11139;SDS011;5624;49.388;11.350;2022-12-29T07:21:21;2.47;;;1.70;;
11139;SDS011;5624;49.388;11.350;2022-12-29T07:23:47;2.73;;;1.80;;
11139;SDS011;5624;49.388;11.350;2022-12-29T07:26:14;2.87;;;2.17;;
11139;SDS011;5624;49.388;11.350;2022-12-29T07:28:42;4.40;;;1.93;;
11139;SDS011;5624;49.388;11.350;2022-12-29T07:31:14;2.83;;;1.93;;
11139;SDS011;5624;49.388;11.350;2022-12-29T07:33:42;2.23;;;1.50;;
11139;SDS011;5624;49.388;11.350;2022-12-29T07:36:08;2.93;;;1.90;;
11139;SDS011;5624;49.388;11.350;2022-12-29T07:38:34;2.27;;;2.07;;
11139;SDS011;5624;49.388;11.350;2022-12-29T07:41:00;2.17;;;1.90;;
11139;SDS011;5624;49.388;11.350;2022-12-29T07:43:25;3.40;;;2.10;;
11139;SDS011;5624;49.388;11.350;2022-12-29T07:45:51;2.17;;;1.87;;
11139;SDS011;5624;49.388;11.350;2022-12-29T07:48:17;3.47;;;2.10;;
11139;SDS011;5624;49.388;11.350;2022-12-29T07:50:43;3.60;;;1.90;;
11139;SDS011;5624;49.388;11.350;2022-12-29T07:53:08;1.83;;;1.70;;
11139;SDS011;5624;49.388;11.350;2022-12-29T07:55:34;3.63;;;1.73;;
11139;SDS011;5624;49.388;11.350;2022-12-29T07:58:00;3.63;;;1.90;;
11139;SDS011;5624;49.388;11.350;2022-12-29T08:00:25;3.50;;;2.17;;
11139;SDS011;5624;49.388;11.350;2022-12-29T08:02:51;3.67;;;2.30;;
11139;SDS011;5624;49.388;11.350;2022-12-29T08:05:17;3.67;;;2.03;;
11139;SDS011;5624;49.388;11.350;2022-12-29T08:07:43;3.70;;;2.10;;
11139;SDS011;5624;49.388;11.350;2022-12-29T08:10:10;2.93;;;2.20;;
11139;SDS011;5624;49.388;11.350;2022-12-29T08:12:37;2.67;;;2.00;;
11139;SDS011;5624;49.388;11.350;2022-12-29T08:15:04;2.43;;;1.70;;
11139;SDS011;5624;49.388;11.350;2022-12-29T08:17:30;3.23;;;2.10;;
11139;SDS011;5624;49.388;11.350;2022-12-29T08:19:56;1.97;;;1.73;;
11139;SDS011;5624;49.388;11.350;2022-12-29T08:22:22;2.73;;;1.80;;
11139;SDS011;5624;49.388;11.350;2022-12-29T08:24:48;2.90;;;2.00;;
11139;SDS011;5624;49.388;11.350;2022-12-29T08:27:13;4.07;;;1.90;;
11139;SDS011;5624;49.388;11.350;2022-12-29T08:29:39;1.80;;;1.70;;
11139;SDS011;5624;49.388;11.350;2022-12-29T08:32:04;2.80;;;1.83;;
11139;SDS011;5624;49.388;11.350;2022-12-29T08:34:31;2.60;;;1.77;;
11139;SDS011;5624;49.388;11.350;2022-12-29T08:36:57;3.93;;;1.67;;
11139;SDS011;5624;49.388;11.350;2022-12-29T08:39:23;2.80;;;2.00;;
11139;SDS011;5624;49.388;11.350;2022-12-29T08:41:49;3.33;;;2.30;;
11139;SDS011;5624;49.388;11.350;2022-12-29T08:44:16;3.30;;;2.10;;
11139;SDS011;5624;49.388;11.350;2022-12-29T08:46:42;2.73;;;1.90;;
11139;SDS011;5624;49.388;11.350;2022-12-29T08:49:07;2.77;;;2.00;;
11139;SDS011;5624;49.388;11.350;2022-12-29T08:51:33;3.80;;;2.30;;
11139;SDS011;5624;49.388;11.350;2022-12-29T08:53:59;3.30;;;2.27;;
11139;SDS011;5624;49.388;11.350;2022-12-29T08:56:25;2.53;;;1.70;;
11139;SDS011;5624;49.388;11.350;2022-12-29T08:58:51;4.87;;;2.10;;
11139;SDS011;5624;49.388;11.350;2022-12-29T09:01:17;3.63;;;2.13;;
11139;SDS011;5624;49.388;11.350;2022-12-29T09:03:44;3.97;;;2.07;;
11139;SDS011;5624;49.388;11.350;2022-12-29T09:06:10;3.83;;;1.87;;
11139;SDS011;5624;49.388;11.350;2022-12-29T09:08:36;2.60;;;1.90;;
11139;SDS011;5624;49.388;11.350;2022-12-29T09:11:06;2.73;;;2.00;;
11139;SDS011;5624;49.388;11.350;2022-12-29T09:13:42;3.13;;;2.10;;
11139;SDS011;5624;49.388;11.350;2022-12-29T09:16:07;3.73;;;2.23;;
11139;SDS011;5624;49.388;11.350;2022-12-29T09:18:33;3.70;;;2.23;;
11139;SDS011;5624;49.388;11.350;2022-12-29T09:20:59;3.17;;;2.20;;
11139;SDS011;5624;49.388;11.350;2022-12-29T09:23:27;3.80;;;2.17;;
11139;SDS011;5624;49.388;11.350;2022-12-29T09:25:53;4.73;;;2.27;;
11139;SDS011;5624;49.388;11.350;2022-12-29T09:28:19;3.47;;;2.00;;
11139;SDS011;5624;49.388;11.350;2022-12-29T09:30:45;2.47;;;1.70;;
11139;SDS011;5624;49.388;11.350;2022-12-29T09:33:12;4.47;;;2.00;;
11139;SDS011;5624;49.388;11.350;2022-12-29T09:35:41;3.10;;;1.83;;
11139;SDS011;5624;49.388;11.350;2022-12-29T09:38:10;4.03;;;2.00;;
11139;SDS011;5624;49.388;11.350;2022-12-29T09:40:37;2.47;;;1.70;;
11139;SDS011;5624;49.388;11.350;2022-12-29T09:43:05;2.77;;;1.70;;
11139;SDS011;5624;49.388;11.350;2022-12-29T09:45:45;3.50;;;1.73;;
11139;SDS011;5624;49.388;11.350;2022-12-29T09:48:40;3.27;;;1.67;;
11139;SDS011;5624;49.388;11.350;2022-12-29T09:51:13;3.17;;;1.80;;
11139;SDS011;5624;49.388;11.350;2022-12-29T09:53:50;3.93;;;1.87;;
11139;SDS011;5624;49.388;11.350;2022-12-29T09:56:28;3.37;;;2.10;;
11139;SDS011;5624;49.388;11.350;2022-12-29T09:59:02;2.40;;;1.53;;
11139;SDS011;5624;49.388;11.350;2022-12-29T10:01:42;2.60;;;1.67;;
11139;SDS011;5624;49.388;11.350;2022-12-29T10:04:14;2.47;;;1.80;;
11139;SDS011;5624;49.388;11.350;2022-12-29T10:23:28;1.67;;;1.40;;
11139;SDS011;5624;49.388;11.350;2022-12-29T10:26:03;3.47;;;1.70;;
11139;SDS011;5624;49.388;11.350;2022-12-29T10:29:27;1.87;;;1.60;;
11139;SDS011;5624;49.388;11.350;2022-12-29T10:31:56;4.20;;;2.07;;
11139;SDS011;5624;49.388;11.350;2022-12-29T10:37:03;2.77;;;1.70;;
11139;SDS011;5624;49.388;11.350;2022-12-29T10:39:46;2.43;;;1.87;;
11139;SDS011;5624;49.388;11.350;2022-12-29T10:45:12;2.67;;;1.70;;
11139;SDS011;5624;49.388;11.350;2022-12-29T10:47:47;4.00;;;2.17;;
11139;SDS011;5624;49.388;11.350;2022-12-29T10:50:18;2.70;;;1.90;;
11139;SDS011;5624;49.388;11.350;2022-12-29T10:52:44;3.97;;;2.00;;
11139;SDS011;5624;49.388;11.350;2022-12-29T10:55:19;3.60;;;2.10;;
11139;SDS011;5624;49.388;11.350;2022-12-29T10:57:52;2.97;;;1.87;;
11139;SDS011;5624;49.388;11.350;2022-12-29T11:00:20;4.77;;;1.80;;
11139;SDS011;5624;49.388;11.350;2022-12-29T11:03:08;3.30;;;1.70;;
11139;SDS011;5624;49.388;11.350;2022-12-29T11:08:20;2.53;;;1.80;;
11139;SDS011;5624;49.388;11.350;2022-12-29T11:11:02;3.07;;;2.00;;
11139;SDS011;5624;49.388;11.350;2022-12-29T11:13:30;2.97;;;1.83;;
11139;SDS011;5624;49.388;11.350;2022-12-29T11:15:58;5.07;;;1.90;;
11139;SDS011;5624;49.388;11.350;2022-12-29T11:18:38;3.60;;;2.30;;
11139;SDS011;5624;49.388;11.350;2022-12-29T11:21:06;2.63;;;1.87;;
11139;SDS011;5624;49.388;11.350;2022-12-29T11:23:57;5.70;;;2.33;;
11139;SDS011;5624;49.388;11.350;2022-12-29T11:26:29;3.30;;;2.00;;
11139;SDS011;5624;49.388;11.350;2022-12-29T11:31:52;3.67;;;2.03;;
11139;SDS011;5624;49.388;11.350;2022-12-29T11:34:41;5.17;;;2.13;;
11139;SDS011;5624;49.388;11.350;2022-12-29T11:37:11;4.63;;;2.70;;
11139;SDS011;5624;49.388;11.350;2022-12-29T11:39:38;2.30;;;2.10;;
11139;SDS011;5624;49.388;11.350;2022-12-29T11:42:23;4.27;;;2.20;;
11139;SDS011;5624;49.388;11.350;2022-12-29T11:44:57;4.57;;;2.23;;
11139;SDS011;5624;49.388;11.350;2022-12-29T11:47:41;4.27;;;2.20;;
11139;SDS011;5624;49.388;11.350;2022-12-29T11:50:16;2.20;;;1.73;;
11139;SDS011;5624;49.388;11.350;2022-12-29T11:53:04;4.23;;;1.90;;
11139;SDS011;5624;49.388;11.350;2022-12-29T11:55:39;3.20;;;1.93;;
11139;SDS011;5624;49.388;11.350;2022-12-29T11:58:04;3.93;;;1.87;;
11139;SDS011;5624;49.388;11.350;2022-12-29T12:00:32;3.87;;;2.00;;
11139;SDS011;5624;49.388;11.350;2022-12-29T12:03:07;3.37;;;1.97;;
11139;SDS011;5624;49.388;11.350;2022-12-29T12:05:53;3.30;;;1.73;;
11139;SDS011;5624;49.388;11.350;2022-12-29T12:08:41;3.03;;;2.00;;
11139;SDS011;5624;49.388;11.350;2022-12-29T12:11:10;3.67;;;1.93;;
11139;SDS011;5624;49.388;11.350;2022-12-29T12:16:24;3.03;;;1.80;;
11139;SDS011;5624;49.388;11.350;2022-12-29T12:19:12;3.43;;;1.70;;
11139;SDS011;5624;49.388;11.350;2022-12-29T12:21:46;6.47;;;1.73;;
11139;SDS011;5624;49.388;11.350;2022-12-29T12:27:09;3.33;;;1.67;;
11139;SDS011;5624;49.388;11.350;2022-12-29T12:30:07;3.07;;;1.80;;
11139;SDS011;5624;49.388;11.350;2022-12-29T12:32:46;2.40;;;1.70;;
11139;SDS011;5624;49.388;11.350;2022-12-29T12:38:39;3.87;;;1.80;;
11139;SDS011;5624;49.388;11.350;2022-12-29T12:41:37;3.60;;;2.20;;
11139;SDS011;5624;49.388;11.350;2022-12-29T12:44:24;3.50;;;1.80;;
11139;SDS011;5624;49.388;11.350;2022-12-29T13:07:55;2.23;;;1.77;;
11139;SDS011;5624;49.388;11.350;2022-12-29T13:18:58;2.10;;;1.50;;
11139;SDS011;5624;49.388;11.350;2022-12-29T13:21:37;3.13;;;1.80;;
11139;SDS011;5624;49.388;11.350;2022-12-29T13:27:16;4.03;;;2.13;;
11139;SDS011;5624;49.388;11.350;2022-12-29T13:30:04;3.77;;;2.40;;
11139;SDS011;5624;49.388;11.350;2022-12-29T13:38:17;4.27;;;2.37;;
11139;SDS011;5624;49.388;11.350;2022-12-29T13:41:07;4.37;;;2.10;;
11139;SDS011;5624;49.388;11.350;2022-12-29T13:43:37;4.47;;;2.30;;
11139;SDS011;5624;49.388;11.350;2022-12-29T13:46:16;3.73;;;2.40;;
11139;SDS011;5624;49.388;11.350;2022-12-29T13:48:54;4.53;;;2.70;;
11139;SDS011;5624;49.388;11.350;2022-12-29T13:51:24;5.77;;;2.60;;
11139;SDS011;5624;49.388;11.350;2022-12-29T13:56:21;4.33;;;2.97;;
11139;SDS011;5624;49.388;11.350;2022-12-29T14:02:27;4.40;;;3.03;;
11139;SDS011;5624;49.388;11.350;2022-12-29T14:07:46;7.97;;;3.53;;
11139;SDS011;5624;49.388;11.350;2022-12-29T14:13:14;2.70;;;2.20;;
11139;SDS011;5624;49.388;11.350;2022-12-29T14:15:42;3.17;;;1.97;;
11139;SDS011;5624;49.388;11.350;2022-12-29T14:18:11;5.57;;;2.07;;
11139;SDS011;5624;49.388;11.350;2022-12-29T14:23:34;2.60;;;2.03;;
11139;SDS011;5624;49.388;11.350;2022-12-29T14:28:32;3.17;;;2.10;;
11139;SDS011;5624;49.388;11.350;2022-12-29T14:31:01;3.67;;;2.50;;
11139;SDS011;5624;49.388;11.350;2022-12-29T14:33:31;3.27;;;2.10;;
11139;SDS011;5624;49.388;11.350;2022-12-29T14:36:18;6.00;;;2.53;;
11139;SDS011;5624;49.388;11.350;2022-12-29T14:38:50;4.57;;;2.50;;
11139;SDS011;5624;49.388;11.350;2022-12-29T14:49:53;4.23;;;2.47;;
11139;SDS011;5624;49.388;11.350;2022-12-29T14:52:21;4.33;;;2.80;;
11139;SDS011;5624;49.388;11.350;2022-12-29T14:57:21;4.67;;;2.90;;
11139;SDS011;5624;49.388;11.350;2022-12-29T14:59:52;5.23;;;2.30;;
11139;SDS011;5624;49.388;11.350;2022-12-29T15:02:22;2.60;;;2.10;;
11139;SDS011;5624;49.388;11.350;2022-12-29T15:04:51;3.50;;;2.67;;
11139;SDS011;5624;49.388;11.350;2022-12-29T15:07:19;4.57;;;2.13;;
11139;SDS011;5624;49.388;11.350;2022-12-29T15:09:47;5.23;;;2.30;;
11139;SDS011;5624;49.388;11.350;2022-12-29T15:12:38;3.27;;;2.20;;
11139;SDS011;5624;49.388;11.350;2022-12-29T15:17:45;3.77;;;2.13;;
11139;SDS011;5624;49.388;11.350;2022-12-29T15:20:30;5.43;;;2.53;;
11139;SDS011;5624;49.388;11.350;2022-12-29T15:23:09;3.37;;;2.00;;
11139;SDS011;5624;49.388;11.350;2022-12-29T15:28:25;3.20;;;2.23;;
11139;SDS011;5624;49.388;11.350;2022-12-29T15:30:56;4.17;;;2.90;;
11139;SDS011;5624;49.388;11.350;2022-12-29T15:33:27;4.40;;;3.03;;
11139;SDS011;5624;49.388;11.350;2022-12-29T15:35:54;5.43;;;3.43;;
11139;SDS011;5624;49.388;11.350;2022-12-29T15:38:26;5.40;;;3.33;;
11139;SDS011;5624;49.388;11.350;2022-12-29T15:40:58;7.13;;;3.00;;
11139;SDS011;5624;49.388;11.350;2022-12-29T15:43:32;3.30;;;2.47;;
11139;SDS011;5624;49.388;11.350;2022-12-29T15:46:19;5.07;;;2.63;;
11139;SDS011;5624;49.388;11.350;2022-12-29T15:48:45;4.80;;;2.30;;
11139;SDS011;5624;49.388;11.350;2022-12-29T15:51:18;5.00;;;2.37;;
11139;SDS011;5624;49.388;11.350;2022-12-29T15:53:47;6.40;;;3.37;;
11139;SDS011;5624;49.388;11.350;2022-12-29T15:56:15;6.80;;;3.87;;
11139;SDS011;5624;49.388;11.350;2022-12-29T15:58:42;6.63;;;3.40;;
11139;SDS011;5624;49.388;11.350;2022-12-29T16:01:16;11.63;;;5.80;;
11139;SDS011;5624;49.388;11.350;2022-12-29T16:03:44;7.20;;;4.27;;
11139;SDS011;5624;49.388;11.350;2022-12-29T16:08:56;4.87;;;3.17;;
11139;SDS011;5624;49.388;11.350;2022-12-29T16:11:24;4.03;;;2.60;;
11139;SDS011;5624;49.388;11.350;2022-12-29T16:13:59;4.30;;;2.67;;
11139;SDS011;5624;49.388;11.350;2022-12-29T16:16:32;5.57;;;2.53;;
11139;SDS011;5624;49.388;11.350;2022-12-29T16:19:12;4.27;;;2.47;;
11139;SDS011;5624;49.388;11.350;2022-12-29T16:21:44;5.40;;;3.33;;
11139;SDS011;5624;49.388;11.350;2022-12-29T16:24:16;6.73;;;4.40;;
11139;SDS011;5624;49.388;11.350;2022-12-29T16:26:49;6.10;;;3.97;;
11139;SDS011;5624;49.388;11.350;2022-12-29T16:29:22;5.20;;;3.60;;
11139;SDS011;5624;49.388;11.350;2022-12-29T16:34:25;8.50;;;3.80;;
11139;SDS011;5624;49.388;11.350;2022-12-29T16:37:03;3.63;;;2.67;;
11139;SDS011;5624;49.388;11.350;2022-12-29T16:39:49;10.30;;;6.83;;
11139;SDS011;5624;49.388;11.350;2022-12-29T16:45:14;7.73;;;4.10;;
11139;SDS011;5624;49.388;11.350;2022-12-29T16:50:39;8.97;;;5.03;;
11139;SDS011;5624;49.388;11.350;2022-12-29T16:53:06;6.33;;;4.13;;
11139;SDS011;5624;49.388;11.350;2022-12-29T16:55:52;7.07;;;4.27;;
11139;SDS011;5624;49.388;11.350;2022-12-29T16:58:20;5.93;;;4.10;;
11139;SDS011;5624;49.388;11.350;2022-12-29T17:00:49;5.57;;;4.17;;
11139;SDS011;5624;49.388;11.350;2022-12-29T17:03:17;6.73;;;4.47;;
11139;SDS011;5624;49.388;11.350;2022-12-29T17:05:42;5.97;;;3.77;;
11139;SDS011;5624;49.388;11.350;2022-12-29T17:08:18;6.63;;;3.43;;
11139;SDS011;5624;49.388;11.350;2022-12-29T17:10:48;6.23;;;3.60;;
11139;SDS011;5624;49.388;11.350;2022-12-29T17:13:36;6.30;;;3.63;;
11139;SDS011;5624;49.388;11.350;2022-12-29T17:16:03;7.83;;;4.43;;
11139;SDS011;5624;49.388;11.350;2022-12-29T17:18:31;5.80;;;3.57;;
11139;SDS011;5624;49.388;11.350;2022-12-29T17:20:57;7.67;;;4.27;;
11139;SDS011;5624;49.388;11.350;2022-12-29T17:23:23;7.97;;;5.00;;
11139;SDS011;5624;49.388;11.350;2022-12-29T17:25:48;11.30;;;6.23;;
11139;SDS011;5624;49.388;11.350;2022-12-29T17:28:27;4.63;;;3.10;;
11139;SDS011;5624;49.388;11.350;2022-12-29T17:31:02;5.83;;;4.23;;
11139;SDS011;5624;49.388;11.350;2022-12-29T17:33:33;5.30;;;3.33;;
11139;SDS011;5624;49.388;11.350;2022-12-29T17:36:01;6.70;;;4.67;;
11139;SDS011;5624;49.388;11.350;2022-12-29T17:38:27;4.17;;;2.80;;
11139;SDS011;5624;49.388;11.350;2022-12-29T17:40:54;5.57;;;3.20;;
11139;SDS011;5624;49.388;11.350;2022-12-29T17:43:20;4.43;;;2.70;;
11139;SDS011;5624;49.388;11.350;2022-12-29T17:45:48;5.27;;;3.40;;